Overview Statistics Trail Chart Weather Telemetry Raw packets
 

This is the latest recevied weather packets stored in our database for station/object HB9GPU-10. If no packets are shown the sender has not sent any weather packets the latest 10 day(s).

<< 33 34 35 36 37 38 39 >>
Time Temp. Humidity Pressure Rain* Wind** Luminosity Snow
1787880722 29.44° C 27% 1015.9 hPa - - - -
1787879822 29.44° C 27% 1015.9 hPa - - - -
1787878922 29.44° C 27% 1016.1 hPa - - - -
1787878022 30° C 27% 1016.1 hPa - - - -
1787877122 30° C 27% 1016.2 hPa - - - -
1787876221 29.44° C 27% 1016.2 hPa - - - -
1787875321 29.44° C 27% 1016.4 hPa - - - -
1787874421 30° C 26% 1016.3 hPa - - - -
1787873521 29.44° C 26% 1016.5 hPa - - - -
1787872621 30° C 26% 1016.6 hPa - - - -
1787871721 30° C 25% 1016.8 hPa - - - -
1787870820 30° C 25% 1016.8 hPa - - - -
1787869920 30.56° C 25% 1017.1 hPa - - - -
1787869020 30° C 26% 1016.8 hPa - - - -
1787868120 30° C 26% 1016.6 hPa - - - -
1787867220 30° C 25% 1017.1 hPa - - - -
1787866320 31.11° C 23% 1016.7 hPa - - - -
1787865419 30.56° C 24% 1017.2 hPa - - - -
1787864519 31.11° C 24% 1016.9 hPa - - - -
1787863619 31.11° C 22% 1016.8 hPa - - - -
1787862719 30.56° C 26% 1017.2 hPa - - - -
1787861819 30.56° C 25% 1017.1 hPa - - - -
1787860919 31.67° C 21% 1016.9 hPa - - - -
1787860019 31.67° C 21% 1016.9 hPa - - - -
1787859118 31.67° C 21% 1017 hPa - - - -

* Rain since midnight (hover to see other rain measurements)
** Current wind speed in m/s (hover to see current wind gust speed)